sensor_id;sensor_type;location;lat;lon;timestamp;P1;durP1;ratioP1;P2;durP2;ratioP2
6017;SDS011;3037;51.068;13.780;2023-05-31T00:02:05;11.70;;;3.03;;
6017;SDS011;3037;51.068;13.780;2023-05-31T00:04:31;3.27;;;2.77;;
6017;SDS011;3037;51.068;13.780;2023-05-31T00:06:57;3.57;;;3.23;;
6017;SDS011;3037;51.068;13.780;2023-05-31T00:09:22;2.60;;;2.40;;
6017;SDS011;3037;51.068;13.780;2023-05-31T00:11:48;3.53;;;3.23;;
6017;SDS011;3037;51.068;13.780;2023-05-31T00:14:13;2.50;;;2.27;;
6017;SDS011;3037;51.068;13.780;2023-05-31T00:16:39;3.10;;;2.90;;
6017;SDS011;3037;51.068;13.780;2023-05-31T00:19:04;5.17;;;3.57;;
6017;SDS011;3037;51.068;13.780;2023-05-31T00:21:30;4.97;;;3.73;;
6017;SDS011;3037;51.068;13.780;2023-05-31T00:23:56;8.40;;;3.97;;
6017;SDS011;3037;51.068;13.780;2023-05-31T00:26:22;2.77;;;2.57;;
6017;SDS011;3037;51.068;13.780;2023-05-31T00:28:47;5.43;;;3.20;;
6017;SDS011;3037;51.068;13.780;2023-05-31T00:31:13;4.37;;;2.90;;
6017;SDS011;3037;51.068;13.780;2023-05-31T00:33:39;3.17;;;2.97;;
6017;SDS011;3037;51.068;13.780;2023-05-31T00:36:04;2.93;;;2.43;;
6017;SDS011;3037;51.068;13.780;2023-05-31T00:38:30;5.90;;;3.23;;
6017;SDS011;3037;51.068;13.780;2023-05-31T00:40:56;4.60;;;2.90;;
6017;SDS011;3037;51.068;13.780;2023-05-31T00:43:21;3.70;;;3.50;;
6017;SDS011;3037;51.068;13.780;2023-05-31T00:45:46;4.80;;;2.97;;
6017;SDS011;3037;51.068;13.780;2023-05-31T00:48:13;3.90;;;3.37;;
6017;SDS011;3037;51.068;13.780;2023-05-31T00:50:39;4.63;;;3.50;;
6017;SDS011;3037;51.068;13.780;2023-05-31T00:53:05;2.67;;;2.57;;
6017;SDS011;3037;51.068;13.780;2023-05-31T00:55:31;5.70;;;3.13;;
6017;SDS011;3037;51.068;13.780;2023-05-31T00:57:57;3.40;;;3.20;;
6017;SDS011;3037;51.068;13.780;2023-05-31T01:00:23;5.00;;;3.60;;
6017;SDS011;3037;51.068;13.780;2023-05-31T01:02:49;2.80;;;2.60;;
6017;SDS011;3037;51.068;13.780;2023-05-31T01:05:16;4.07;;;2.60;;
6017;SDS011;3037;51.068;13.780;2023-05-31T01:07:42;6.40;;;3.17;;
6017;SDS011;3037;51.068;13.780;2023-05-31T01:10:09;5.53;;;3.57;;
6017;SDS011;3037;51.068;13.780;2023-05-31T01:12:38;4.60;;;2.80;;
6017;SDS011;3037;51.068;13.780;2023-05-31T01:15:18;3.50;;;2.90;;
6017;SDS011;3037;51.068;13.780;2023-05-31T01:17:52;3.53;;;3.10;;
6017;SDS011;3037;51.068;13.780;2023-05-31T01:20:37;4.60;;;3.20;;
6017;SDS011;3037;51.068;13.780;2023-05-31T01:23:13;4.33;;;3.33;;
6017;SDS011;3037;51.068;13.780;2023-05-31T01:26:17;3.10;;;2.90;;
6017;SDS011;3037;51.068;13.780;2023-05-31T01:28:49;4.87;;;2.87;;
6017;SDS011;3037;51.068;13.780;2023-05-31T01:31:16;4.50;;;2.90;;
6017;SDS011;3037;51.068;13.780;2023-05-31T01:33:45;3.60;;;3.17;;
6017;SDS011;3037;51.068;13.780;2023-05-31T01:36:10;6.97;;;2.77;;
6017;SDS011;3037;51.068;13.780;2023-05-31T01:38:36;3.17;;;2.80;;
6017;SDS011;3037;51.068;13.780;2023-05-31T01:41:01;7.93;;;3.23;;
6017;SDS011;3037;51.068;13.780;2023-05-31T01:43:31;9.27;;;3.60;;
6017;SDS011;3037;51.068;13.780;2023-05-31T01:45:57;4.97;;;3.10;;
6017;SDS011;3037;51.068;13.780;2023-05-31T01:48:23;4.23;;;3.23;;
6017;SDS011;3037;51.068;13.780;2023-05-31T01:50:50;3.60;;;2.60;;
6017;SDS011;3037;51.068;13.780;2023-05-31T01:53:16;2.83;;;2.53;;
6017;SDS011;3037;51.068;13.780;2023-05-31T01:55:42;3.83;;;3.13;;
6017;SDS011;3037;51.068;13.780;2023-05-31T01:58:08;3.60;;;3.20;;
6017;SDS011;3037;51.068;13.780;2023-05-31T02:00:35;9.80;;;3.37;;
6017;SDS011;3037;51.068;13.780;2023-05-31T02:03:01;4.63;;;3.43;;
6017;SDS011;3037;51.068;13.780;2023-05-31T02:05:28;5.30;;;3.87;;
6017;SDS011;3037;51.068;13.780;2023-05-31T02:07:54;7.40;;;3.97;;
6017;SDS011;3037;51.068;13.780;2023-05-31T02:10:19;5.47;;;3.27;;
6017;SDS011;3037;51.068;13.780;2023-05-31T02:12:45;3.13;;;2.83;;
6017;SDS011;3037;51.068;13.780;2023-05-31T02:15:10;5.83;;;3.37;;
6017;SDS011;3037;51.068;13.780;2023-05-31T02:17:38;9.20;;;3.30;;
6017;SDS011;3037;51.068;13.780;2023-05-31T02:20:11;5.10;;;4.23;;
6017;SDS011;3037;51.068;13.780;2023-05-31T02:22:41;3.37;;;3.00;;
6017;SDS011;3037;51.068;13.780;2023-05-31T02:25:07;10.23;;;3.60;;
6017;SDS011;3037;51.068;13.780;2023-05-31T02:27:34;3.43;;;2.50;;
6017;SDS011;3037;51.068;13.780;2023-05-31T02:30:00;9.53;;;3.20;;
6017;SDS011;3037;51.068;13.780;2023-05-31T02:32:26;4.40;;;3.57;;
6017;SDS011;3037;51.068;13.780;2023-05-31T02:34:51;6.20;;;3.23;;
6017;SDS011;3037;51.068;13.780;2023-05-31T02:37:17;4.33;;;3.40;;
6017;SDS011;3037;51.068;13.780;2023-05-31T02:39:42;7.10;;;3.93;;
6017;SDS011;3037;51.068;13.780;2023-05-31T02:42:08;3.30;;;3.10;;
6017;SDS011;3037;51.068;13.780;2023-05-31T02:44:33;6.23;;;3.80;;
6017;SDS011;3037;51.068;13.780;2023-05-31T02:46:59;4.10;;;3.03;;
6017;SDS011;3037;51.068;13.780;2023-05-31T02:49:24;8.60;;;3.73;;
6017;SDS011;3037;51.068;13.780;2023-05-31T02:51:50;4.90;;;3.40;;
6017;SDS011;3037;51.068;13.780;2023-05-31T02:54:15;5.57;;;3.10;;
6017;SDS011;3037;51.068;13.780;2023-05-31T02:56:41;5.77;;;3.20;;
6017;SDS011;3037;51.068;13.780;2023-05-31T02:59:06;4.73;;;3.40;;
6017;SDS011;3037;51.068;13.780;2023-05-31T03:01:32;3.13;;;2.93;;
6017;SDS011;3037;51.068;13.780;2023-05-31T03:03:58;4.97;;;3.40;;
6017;SDS011;3037;51.068;13.780;2023-05-31T03:06:23;12.50;;;4.57;;
6017;SDS011;3037;51.068;13.780;2023-05-31T03:08:49;6.07;;;3.90;;
6017;SDS011;3037;51.068;13.780;2023-05-31T03:11:15;5.37;;;3.70;;
6017;SDS011;3037;51.068;13.780;2023-05-31T03:13:40;4.57;;;3.83;;
6017;SDS011;3037;51.068;13.780;2023-05-31T03:16:06;6.93;;;3.37;;
6017;SDS011;3037;51.068;13.780;2023-05-31T03:18:32;6.07;;;3.50;;
6017;SDS011;3037;51.068;13.780;2023-05-31T03:20:57;4.47;;;3.23;;
6017;SDS011;3037;51.068;13.780;2023-05-31T03:23:22;7.60;;;3.50;;
6017;SDS011;3037;51.068;13.780;2023-05-31T03:25:48;4.33;;;3.20;;
6017;SDS011;3037;51.068;13.780;2023-05-31T03:28:13;6.53;;;3.97;;
6017;SDS011;3037;51.068;13.780;2023-05-31T03:30:39;8.13;;;3.40;;
6017;SDS011;3037;51.068;13.780;2023-05-31T03:33:04;4.37;;;3.03;;
6017;SDS011;3037;51.068;13.780;2023-05-31T03:35:30;5.23;;;3.40;;
6017;SDS011;3037;51.068;13.780;2023-05-31T03:37:55;4.10;;;3.70;;
6017;SDS011;3037;51.068;13.780;2023-05-31T03:40:21;11.60;;;3.80;;
6017;SDS011;3037;51.068;13.780;2023-05-31T03:42:47;6.83;;;4.00;;
6017;SDS011;3037;51.068;13.780;2023-05-31T03:45:12;5.30;;;3.10;;
6017;SDS011;3037;51.068;13.780;2023-05-31T03:47:38;4.90;;;4.40;;
6017;SDS011;3037;51.068;13.780;2023-05-31T03:50:04;4.80;;;3.83;;
6017;SDS011;3037;51.068;13.780;2023-05-31T03:52:30;6.60;;;3.63;;
6017;SDS011;3037;51.068;13.780;2023-05-31T03:54:56;4.90;;;3.77;;
6017;SDS011;3037;51.068;13.780;2023-05-31T03:57:22;4.37;;;3.60;;
6017;SDS011;3037;51.068;13.780;2023-05-31T03:59:47;8.60;;;3.97;;
6017;SDS011;3037;51.068;13.780;2023-05-31T04:02:13;3.67;;;3.37;;
6017;SDS011;3037;51.068;13.780;2023-05-31T04:04:38;4.00;;;3.10;;
6017;SDS011;3037;51.068;13.780;2023-05-31T04:07:04;4.70;;;2.77;;
6017;SDS011;3037;51.068;13.780;2023-05-31T04:09:30;3.97;;;3.67;;
6017;SDS011;3037;51.068;13.780;2023-05-31T04:11:56;3.43;;;3.13;;
6017;SDS011;3037;51.068;13.780;2023-05-31T04:14:21;4.60;;;3.40;;
6017;SDS011;3037;51.068;13.780;2023-05-31T04:16:47;3.70;;;3.50;;
6017;SDS011;3037;51.068;13.780;2023-05-31T04:19:12;5.60;;;3.37;;
6017;SDS011;3037;51.068;13.780;2023-05-31T04:21:38;4.43;;;2.97;;
6017;SDS011;3037;51.068;13.780;2023-05-31T04:24:04;4.93;;;3.80;;
6017;SDS011;3037;51.068;13.780;2023-05-31T04:26:30;6.27;;;3.43;;
6017;SDS011;3037;51.068;13.780;2023-05-31T04:28:57;4.10;;;3.80;;
6017;SDS011;3037;51.068;13.780;2023-05-31T04:31:23;8.27;;;3.93;;
6017;SDS011;3037;51.068;13.780;2023-05-31T04:33:50;4.43;;;3.23;;
6017;SDS011;3037;51.068;13.780;2023-05-31T04:36:18;5.30;;;3.80;;
6017;SDS011;3037;51.068;13.780;2023-05-31T04:38:47;9.97;;;4.23;;
6017;SDS011;3037;51.068;13.780;2023-05-31T04:41:13;7.43;;;3.30;;
6017;SDS011;3037;51.068;13.780;2023-05-31T04:43:40;5.47;;;3.70;;
6017;SDS011;3037;51.068;13.780;2023-05-31T04:46:07;4.17;;;3.30;;
6017;SDS011;3037;51.068;13.780;2023-05-31T04:48:34;4.60;;;3.40;;
6017;SDS011;3037;51.068;13.780;2023-05-31T04:51:00;5.07;;;3.87;;
6017;SDS011;3037;51.068;13.780;2023-05-31T04:53:26;6.10;;;3.00;;
6017;SDS011;3037;51.068;13.780;2023-05-31T04:55:51;6.53;;;3.27;;
6017;SDS011;3037;51.068;13.780;2023-05-31T04:58:17;4.00;;;3.67;;
6017;SDS011;3037;51.068;13.780;2023-05-31T05:00:44;4.93;;;3.87;;
6017;SDS011;3037;51.068;13.780;2023-05-31T05:03:10;4.40;;;4.00;;
6017;SDS011;3037;51.068;13.780;2023-05-31T05:05:36;12.33;;;3.13;;
6017;SDS011;3037;51.068;13.780;2023-05-31T05:08:02;5.03;;;3.40;;
6017;SDS011;3037;51.068;13.780;2023-05-31T05:10:28;8.40;;;4.33;;
6017;SDS011;3037;51.068;13.780;2023-05-31T05:12:54;5.27;;;3.67;;
6017;SDS011;3037;51.068;13.780;2023-05-31T05:15:19;9.70;;;4.03;;
6017;SDS011;3037;51.068;13.780;2023-05-31T05:17:45;4.43;;;3.00;;
6017;SDS011;3037;51.068;13.780;2023-05-31T05:20:11;12.10;;;3.80;;
6017;SDS011;3037;51.068;13.780;2023-05-31T05:22:36;16.60;;;4.57;;
6017;SDS011;3037;51.068;13.780;2023-05-31T05:25:02;10.20;;;5.33;;
6017;SDS011;3037;51.068;13.780;2023-05-31T05:27:28;12.87;;;3.60;;
6017;SDS011;3037;51.068;13.780;2023-05-31T05:29:53;5.10;;;4.30;;
6017;SDS011;3037;51.068;13.780;2023-05-31T05:32:19;5.20;;;4.27;;
6017;SDS011;3037;51.068;13.780;2023-05-31T05:34:44;8.73;;;4.00;;
6017;SDS011;3037;51.068;13.780;2023-05-31T05:37:10;7.23;;;3.53;;
6017;SDS011;3037;51.068;13.780;2023-05-31T05:39:36;5.53;;;4.60;;
6017;SDS011;3037;51.068;13.780;2023-05-31T05:42:01;6.90;;;3.80;;
6017;SDS011;3037;51.068;13.780;2023-05-31T05:44:27;3.33;;;3.13;;
6017;SDS011;3037;51.068;13.780;2023-05-31T05:46:53;5.13;;;4.43;;
6017;SDS011;3037;51.068;13.780;2023-05-31T05:49:18;8.97;;;4.10;;
6017;SDS011;3037;51.068;13.780;2023-05-31T05:51:44;4.53;;;3.60;;
6017;SDS011;3037;51.068;13.780;2023-05-31T05:54:10;6.33;;;3.53;;
6017;SDS011;3037;51.068;13.780;2023-05-31T05:56:35;11.60;;;3.97;;
6017;SDS011;3037;51.068;13.780;2023-05-31T05:59:01;3.97;;;3.03;;
6017;SDS011;3037;51.068;13.780;2023-05-31T06:01:27;7.53;;;3.07;;
6017;SDS011;3037;51.068;13.780;2023-05-31T06:03:53;10.97;;;3.63;;
6017;SDS011;3037;51.068;13.780;2023-05-31T06:06:20;13.83;;;4.00;;
6017;SDS011;3037;51.068;13.780;2023-05-31T06:08:46;6.43;;;3.80;;
6017;SDS011;3037;51.068;13.780;2023-05-31T06:11:12;3.73;;;3.03;;
6017;SDS011;3037;51.068;13.780;2023-05-31T06:13:41;6.90;;;3.90;;
6017;SDS011;3037;51.068;13.780;2023-05-31T06:16:08;5.43;;;3.87;;
6017;SDS011;3037;51.068;13.780;2023-05-31T06:18:33;8.80;;;3.27;;
6017;SDS011;3037;51.068;13.780;2023-05-31T06:20:59;3.93;;;3.07;;
6017;SDS011;3037;51.068;13.780;2023-05-31T06:23:25;7.47;;;3.50;;
6017;SDS011;3037;51.068;13.780;2023-05-31T06:25:51;3.87;;;3.43;;
6017;SDS011;3037;51.068;13.780;2023-05-31T06:28:16;8.67;;;3.60;;
6017;SDS011;3037;51.068;13.780;2023-05-31T06:30:42;18.53;;;3.70;;
6017;SDS011;3037;51.068;13.780;2023-05-31T06:33:08;7.73;;;4.70;;
6017;SDS011;3037;51.068;13.780;2023-05-31T06:35:33;8.67;;;3.43;;
6017;SDS011;3037;51.068;13.780;2023-05-31T06:37:59;5.00;;;3.53;;
6017;SDS011;3037;51.068;13.780;2023-05-31T06:40:24;8.83;;;3.73;;
6017;SDS011;3037;51.068;13.780;2023-05-31T06:42:50;8.30;;;3.30;;
6017;SDS011;3037;51.068;13.780;2023-05-31T06:45:15;4.83;;;3.10;;
6017;SDS011;3037;51.068;13.780;2023-05-31T06:47:41;6.77;;;3.23;;
6017;SDS011;3037;51.068;13.780;2023-05-31T06:50:06;3.53;;;3.20;;
6017;SDS011;3037;51.068;13.780;2023-05-31T06:52:34;7.53;;;4.50;;
6017;SDS011;3037;51.068;13.780;2023-05-31T06:55:00;10.30;;;3.07;;
6017;SDS011;3037;51.068;13.780;2023-05-31T06:57:25;7.83;;;3.10;;
6017;SDS011;3037;51.068;13.780;2023-05-31T06:59:51;4.23;;;2.90;;
6017;SDS011;3037;51.068;13.780;2023-05-31T07:02:16;3.77;;;3.40;;
6017;SDS011;3037;51.068;13.780;2023-05-31T07:04:42;7.47;;;3.60;;
6017;SDS011;3037;51.068;13.780;2023-05-31T07:07:08;6.00;;;3.30;;
6017;SDS011;3037;51.068;13.780;2023-05-31T07:09:34;3.33;;;2.93;;
6017;SDS011;3037;51.068;13.780;2023-05-31T07:12:00;8.50;;;3.90;;
6017;SDS011;3037;51.068;13.780;2023-05-31T07:14:28;8.63;;;3.43;;
6017;SDS011;3037;51.068;13.780;2023-05-31T07:16:53;5.60;;;3.10;;
6017;SDS011;3037;51.068;13.780;2023-05-31T07:19:19;7.93;;;4.00;;
6017;SDS011;3037;51.068;13.780;2023-05-31T07:21:44;15.77;;;3.33;;
6017;SDS011;3037;51.068;13.780;2023-05-31T07:24:10;15.20;;;3.10;;
6017;SDS011;3037;51.068;13.780;2023-05-31T07:26:36;9.57;;;3.90;;
6017;SDS011;3037;51.068;13.780;2023-05-31T07:29:01;3.23;;;2.93;;
6017;SDS011;3037;51.068;13.780;2023-05-31T07:31:27;10.70;;;3.23;;
6017;SDS011;3037;51.068;13.780;2023-05-31T07:33:52;4.17;;;3.30;;
6017;SDS011;3037;51.068;13.780;2023-05-31T07:36:18;7.00;;;3.43;;
6017;SDS011;3037;51.068;13.780;2023-05-31T07:38:44;5.93;;;3.43;;
6017;SDS011;3037;51.068;13.780;2023-05-31T07:41:09;4.80;;;3.10;;
6017;SDS011;3037;51.068;13.780;2023-05-31T07:43:35;9.10;;;3.10;;
6017;SDS011;3037;51.068;13.780;2023-05-31T07:46:01;4.63;;;3.20;;
6017;SDS011;3037;51.068;13.780;2023-05-31T07:48:27;2.73;;;2.53;;
6017;SDS011;3037;51.068;13.780;2023-05-31T07:50:53;7.77;;;3.07;;
6017;SDS011;3037;51.068;13.780;2023-05-31T07:53:19;3.00;;;2.80;;
6017;SDS011;3037;51.068;13.780;2023-05-31T07:55:45;6.57;;;2.90;;
6017;SDS011;3037;51.068;13.780;2023-05-31T07:58:10;11.30;;;2.77;;
6017;SDS011;3037;51.068;13.780;2023-05-31T08:00:37;6.37;;;3.00;;
6017;SDS011;3037;51.068;13.780;2023-05-31T08:03:03;4.23;;;2.80;;
6017;SDS011;3037;51.068;13.780;2023-05-31T08:05:30;4.13;;;2.60;;
6017;SDS011;3037;51.068;13.780;2023-05-31T08:07:56;3.20;;;2.90;;
6017;SDS011;3037;51.068;13.780;2023-05-31T08:10:21;4.33;;;2.73;;
6017;SDS011;3037;51.068;13.780;2023-05-31T08:12:47;6.97;;;3.23;;
6017;SDS011;3037;51.068;13.780;2023-05-31T08:15:12;3.90;;;3.43;;
6017;SDS011;3037;51.068;13.780;2023-05-31T08:17:38;3.97;;;2.83;;
6017;SDS011;3037;51.068;13.780;2023-05-31T08:20:03;5.07;;;3.00;;
6017;SDS011;3037;51.068;13.780;2023-05-31T08:22:31;6.33;;;3.17;;
6017;SDS011;3037;51.068;13.780;2023-05-31T08:24:57;3.40;;;2.60;;
6017;SDS011;3037;51.068;13.780;2023-05-31T08:27:23;6.67;;;2.50;;
6017;SDS011;3037;51.068;13.780;2023-05-31T08:29:48;5.80;;;2.57;;
6017;SDS011;3037;51.068;13.780;2023-05-31T08:32:14;7.57;;;3.57;;
6017;SDS011;3037;51.068;13.780;2023-05-31T08:34:40;11.23;;;2.67;;
6017;SDS011;3037;51.068;13.780;2023-05-31T08:37:06;3.20;;;2.23;;
6017;SDS011;3037;51.068;13.780;2023-05-31T08:39:32;3.60;;;2.50;;
6017;SDS011;3037;51.068;13.780;2023-05-31T08:42:02;3.93;;;2.20;;
6017;SDS011;3037;51.068;13.780;2023-05-31T08:44:29;6.77;;;2.70;;
6017;SDS011;3037;51.068;13.780;2023-05-31T08:47:07;3.73;;;2.10;;
6017;SDS011;3037;51.068;13.780;2023-05-31T08:49:39;3.87;;;2.60;;
6017;SDS011;3037;51.068;13.780;2023-05-31T08:52:06;2.97;;;2.77;;
6017;SDS011;3037;51.068;13.780;2023-05-31T08:54:33;13.63;;;2.60;;
6017;SDS011;3037;51.068;13.780;2023-05-31T08:57:00;5.70;;;2.63;;
6017;SDS011;3037;51.068;13.780;2023-05-31T08:59:27;4.63;;;2.40;;
6017;SDS011;3037;51.068;13.780;2023-05-31T09:01:54;9.73;;;3.37;;
6017;SDS011;3037;51.068;13.780;2023-05-31T09:04:20;10.63;;;2.10;;
6017;SDS011;3037;51.068;13.780;2023-05-31T09:06:47;4.90;;;3.33;;
6017;SDS011;3037;51.068;13.780;2023-05-31T09:09:12;2.43;;;2.27;;
6017;SDS011;3037;51.068;13.780;2023-05-31T09:11:38;8.03;;;2.77;;
6017;SDS011;3037;51.068;13.780;2023-05-31T09:14:05;10.20;;;3.20;;
6017;SDS011;3037;51.068;13.780;2023-05-31T09:16:31;17.13;;;2.70;;
6017;SDS011;3037;51.068;13.780;2023-05-31T09:19:00;5.93;;;1.83;;
6017;SDS011;3037;51.068;13.780;2023-05-31T09:21:27;2.87;;;2.67;;
6017;SDS011;3037;51.068;13.780;2023-05-31T09:23:56;3.43;;;2.43;;
6017;SDS011;3037;51.068;13.780;2023-05-31T09:26:23;5.07;;;3.40;;
6017;SDS011;3037;51.068;13.780;2023-05-31T09:28:52;3.80;;;2.17;;
6017;SDS011;3037;51.068;13.780;2023-05-31T09:31:18;3.13;;;1.77;;
6017;SDS011;3037;51.068;13.780;2023-05-31T09:33:45;5.43;;;2.47;;
6017;SDS011;3037;51.068;13.780;2023-05-31T09:36:13;8.20;;;2.37;;
6017;SDS011;3037;51.068;13.780;2023-05-31T09:38:47;4.77;;;2.43;;
6017;SDS011;3037;51.068;13.780;2023-05-31T09:41:13;3.90;;;2.20;;
6017;SDS011;3037;51.068;13.780;2023-05-31T09:43:43;6.00;;;2.30;;
6017;SDS011;3037;51.068;13.780;2023-05-31T09:46:16;7.93;;;2.50;;
6017;SDS011;3037;51.068;13.780;2023-05-31T09:48:56;2.30;;;2.10;;
6017;SDS011;3037;51.068;13.780;2023-05-31T09:51:22;3.90;;;2.53;;
6017;SDS011;3037;51.068;13.780;2023-05-31T09:53:48;3.00;;;1.90;;
6017;SDS011;3037;51.068;13.780;2023-05-31T09:56:17;6.13;;;2.53;;
6017;SDS011;3037;51.068;13.780;2023-05-31T09:58:44;2.87;;;2.67;;
6017;SDS011;3037;51.068;13.780;2023-05-31T10:01:09;7.10;;;2.30;;
6017;SDS011;3037;51.068;13.780;2023-05-31T10:03:35;4.47;;;2.23;;
6017;SDS011;3037;51.068;13.780;2023-05-31T10:06:02;3.67;;;2.30;;
6017;SDS011;3037;51.068;13.780;2023-05-31T10:08:28;3.07;;;2.17;;
6017;SDS011;3037;51.068;13.780;2023-05-31T10:10:56;4.30;;;2.30;;
6017;SDS011;3037;51.068;13.780;2023-05-31T10:13:25;6.50;;;1.90;;
6017;SDS011;3037;51.068;13.780;2023-05-31T10:15:53;6.47;;;2.40;;
6017;SDS011;3037;51.068;13.780;2023-05-31T10:18:25;6.33;;;1.97;;
6017;SDS011;3037;51.068;13.780;2023-05-31T10:21:03;3.43;;;2.03;;
6017;SDS011;3037;51.068;13.780;2023-05-31T10:23:35;3.40;;;2.13;;
6017;SDS011;3037;51.068;13.780;2023-05-31T10:26:12;2.20;;;2.00;;
6017;SDS011;3037;51.068;13.780;2023-05-31T10:29:01;7.63;;;2.87;;
6017;SDS011;3037;51.068;13.780;2023-05-31T10:31:36;5.03;;;2.40;;
6017;SDS011;3037;51.068;13.780;2023-05-31T10:34:14;5.00;;;2.13;;
6017;SDS011;3037;51.068;13.780;2023-05-31T10:36:46;4.40;;;2.40;;
6017;SDS011;3037;51.068;13.780;2023-05-31T10:42:36;4.40;;;1.93;;
6017;SDS011;3037;51.068;13.780;2023-05-31T10:45:29;3.57;;;1.83;;
6017;SDS011;3037;51.068;13.780;2023-05-31T10:50:31;3.90;;;2.30;;
6017;SDS011;3037;51.068;13.780;2023-05-31T10:53:12;2.30;;;2.10;;
6017;SDS011;3037;51.068;13.780;2023-05-31T10:55:41;2.07;;;1.93;;
6017;SDS011;3037;51.068;13.780;2023-05-31T10:58:07;2.20;;;1.80;;
6017;SDS011;3037;51.068;13.780;2023-05-31T11:00:52;5.77;;;1.90;;
6017;SDS011;3037;51.068;13.780;2023-05-31T11:03:22;3.00;;;2.27;;
6017;SDS011;3037;51.068;13.780;2023-05-31T11:05:53;2.87;;;2.13;;
6017;SDS011;3037;51.068;13.780;2023-05-31T11:08:20;3.13;;;2.20;;
6017;SDS011;3037;51.068;13.780;2023-05-31T11:10:46;11.00;;;2.63;;
6017;SDS011;3037;51.068;13.780;2023-05-31T11:13:13;3.33;;;2.13;;
6017;SDS011;3037;51.068;13.780;2023-05-31T11:15:43;5.80;;;2.70;;
6017;SDS011;3037;51.068;13.780;2023-05-31T11:18:13;12.43;;;3.40;;
6017;SDS011;3037;51.068;13.780;2023-05-31T11:20:40;13.53;;;3.30;;
6017;SDS011;3037;51.068;13.780;2023-05-31T11:25:43;3.37;;;2.13;;
6017;SDS011;3037;51.068;13.780;2023-05-31T11:28:30;2.90;;;1.67;;
6017;SDS011;3037;51.068;13.780;2023-05-31T11:30:56;5.80;;;2.50;;
6017;SDS011;3037;51.068;13.780;2023-05-31T11:33:21;3.67;;;2.50;;
6017;SDS011;3037;51.068;13.780;2023-05-31T11:35:48;5.67;;;2.60;;
6017;SDS011;3037;51.068;13.780;2023-05-31T11:38:14;2.33;;;2.07;;
6017;SDS011;3037;51.068;13.780;2023-05-31T11:40:40;9.37;;;1.93;;
6017;SDS011;3037;51.068;13.780;2023-05-31T11:43:06;3.67;;;2.43;;
6017;SDS011;3037;51.068;13.780;2023-05-31T11:45:33;6.17;;;2.13;;
6017;SDS011;3037;51.068;13.780;2023-05-31T11:48:10;6.37;;;2.23;;
6017;SDS011;3037;51.068;13.780;2023-05-31T11:50:48;5.57;;;2.40;;
6017;SDS011;3037;51.068;13.780;2023-05-31T11:53:14;4.77;;;2.33;;
6017;SDS011;3037;51.068;13.780;2023-05-31T11:55:44;2.00;;;1.80;;
6017;SDS011;3037;51.068;13.780;2023-05-31T11:58:12;2.20;;;2.03;;
6017;SDS011;3037;51.068;13.780;2023-05-31T12:00:42;2.60;;;2.40;;
6017;SDS011;3037;51.068;13.780;2023-05-31T12:03:13;2.50;;;2.00;;
6017;SDS011;3037;51.068;13.780;2023-05-31T12:05:41;8.20;;;2.97;;
6017;SDS011;3037;51.068;13.780;2023-05-31T12:08:07;3.37;;;2.17;;
6017;SDS011;3037;51.068;13.780;2023-05-31T12:10:37;10.33;;;1.70;;
6017;SDS011;3037;51.068;13.780;2023-05-31T12:13:03;2.20;;;2.07;;
6017;SDS011;3037;51.068;13.780;2023-05-31T12:15:29;4.90;;;1.97;;
6017;SDS011;3037;51.068;13.780;2023-05-31T12:17:57;2.40;;;2.20;;
6017;SDS011;3037;51.068;13.780;2023-05-31T12:20:26;2.40;;;2.20;;
6017;SDS011;3037;51.068;13.780;2023-05-31T12:22:52;5.60;;;1.90;;
6017;SDS011;3037;51.068;13.780;2023-05-31T12:25:32;9.73;;;2.67;;
6017;SDS011;3037;51.068;13.780;2023-05-31T12:27:57;2.20;;;2.00;;
6017;SDS011;3037;51.068;13.780;2023-05-31T12:30:23;2.47;;;2.13;;
6017;SDS011;3037;51.068;13.780;2023-05-31T12:32:48;2.50;;;2.17;;
6017;SDS011;3037;51.068;13.780;2023-05-31T12:35:14;2.80;;;2.10;;
6017;SDS011;3037;51.068;13.780;2023-05-31T12:37:39;4.83;;;2.60;;
6017;SDS011;3037;51.068;13.780;2023-05-31T12:40:08;5.33;;;2.77;;
6017;SDS011;3037;51.068;13.780;2023-05-31T12:42:38;6.90;;;2.60;;
6017;SDS011;3037;51.068;13.780;2023-05-31T12:45:07;6.00;;;3.07;;
6017;SDS011;3037;51.068;13.780;2023-05-31T12:47:33;4.77;;;2.50;;
6017;SDS011;3037;51.068;13.780;2023-05-31T12:50:07;13.03;;;2.50;;
6017;SDS011;3037;51.068;13.780;2023-05-31T12:52:33;6.57;;;2.23;;
6017;SDS011;3037;51.068;13.780;2023-05-31T12:54:59;2.60;;;2.40;;
6017;SDS011;3037;51.068;13.780;2023-05-31T12:57:26;4.20;;;2.07;;
6017;SDS011;3037;51.068;13.780;2023-05-31T13:00:05;2.37;;;2.17;;
6017;SDS011;3037;51.068;13.780;2023-05-31T13:02:36;2.93;;;2.20;;
6017;SDS011;3037;51.068;13.780;2023-05-31T13:05:03;3.13;;;2.57;;
6017;SDS011;3037;51.068;13.780;2023-05-31T13:07:29;4.33;;;2.47;;
6017;SDS011;3037;51.068;13.780;2023-05-31T13:09:55;7.20;;;2.57;;
6017;SDS011;3037;51.068;13.780;2023-05-31T13:12:20;10.37;;;3.37;;
6017;SDS011;3037;51.068;13.780;2023-05-31T13:14:46;2.33;;;2.17;;
6017;SDS011;3037;51.068;13.780;2023-05-31T13:17:12;4.80;;;3.00;;
6017;SDS011;3037;51.068;13.780;2023-05-31T13:19:38;2.43;;;2.23;;
6017;SDS011;3037;51.068;13.780;2023-05-31T13:22:03;4.03;;;2.20;;
6017;SDS011;3037;51.068;13.780;2023-05-31T13:24:29;2.73;;;2.50;;
6017;SDS011;3037;51.068;13.780;2023-05-31T13:26:55;3.83;;;3.43;;
6017;SDS011;3037;51.068;13.780;2023-05-31T13:29:20;8.03;;;3.37;;
6017;SDS011;3037;51.068;13.780;2023-05-31T13:31:49;3.00;;;2.80;;
6017;SDS011;3037;51.068;13.780;2023-05-31T13:34:15;6.50;;;3.53;;
6017;SDS011;3037;51.068;13.780;2023-05-31T13:36:40;2.60;;;2.50;;
6017;SDS011;3037;51.068;13.780;2023-05-31T13:39:06;5.53;;;3.00;;
6017;SDS011;3037;51.068;13.780;2023-05-31T13:41:32;4.87;;;2.10;;
6017;SDS011;3037;51.068;13.780;2023-05-31T13:43:58;2.40;;;1.97;;
6017;SDS011;3037;51.068;13.780;2023-05-31T13:46:23;3.60;;;2.77;;
6017;SDS011;3037;51.068;13.780;2023-05-31T13:48:51;3.53;;;2.87;;
6017;SDS011;3037;51.068;13.780;2023-05-31T13:51:17;2.97;;;2.23;;
6017;SDS011;3037;51.068;13.780;2023-05-31T13:53:42;3.40;;;2.70;;
6017;SDS011;3037;51.068;13.780;2023-05-31T13:56:08;3.50;;;3.20;;
6017;SDS011;3037;51.068;13.780;2023-05-31T13:58:35;3.43;;;2.80;;
6017;SDS011;3037;51.068;13.780;2023-05-31T14:01:01;4.67;;;2.40;;
6017;SDS011;3037;51.068;13.780;2023-05-31T14:03:28;2.43;;;2.23;;
6017;SDS011;3037;51.068;13.780;2023-05-31T14:05:54;5.63;;;2.30;;
6017;SDS011;3037;51.068;13.780;2023-05-31T14:08:19;4.30;;;2.10;;
6017;SDS011;3037;51.068;13.780;2023-05-31T14:10:47;11.00;;;2.63;;
6017;SDS011;3037;51.068;13.780;2023-05-31T14:13:13;4.93;;;2.40;;
6017;SDS011;3037;51.068;13.780;2023-05-31T14:15:39;4.80;;;2.70;;
6017;SDS011;3037;51.068;13.780;2023-05-31T14:18:04;4.13;;;1.90;;
6017;SDS011;3037;51.068;13.780;2023-05-31T14:20:31;8.67;;;2.70;;
6017;SDS011;3037;51.068;13.780;2023-05-31T14:22:57;5.57;;;2.13;;
6017;SDS011;3037;51.068;13.780;2023-05-31T14:25:22;3.83;;;2.80;;
6017;SDS011;3037;51.068;13.780;2023-05-31T14:27:49;4.03;;;2.80;;
6017;SDS011;3037;51.068;13.780;2023-05-31T14:30:14;4.40;;;2.50;;
6017;SDS011;3037;51.068;13.780;2023-05-31T14:32:40;5.13;;;2.83;;
6017;SDS011;3037;51.068;13.780;2023-05-31T14:35:05;3.53;;;2.10;;
6017;SDS011;3037;51.068;13.780;2023-05-31T14:37:34;2.70;;;2.20;;
6017;SDS011;3037;51.068;13.780;2023-05-31T14:40:00;11.77;;;2.80;;
6017;SDS011;3037;51.068;13.780;2023-05-31T14:42:25;3.07;;;2.77;;
6017;SDS011;3037;51.068;13.780;2023-05-31T14:44:50;12.63;;;2.80;;
6017;SDS011;3037;51.068;13.780;2023-05-31T14:47:16;2.80;;;2.20;;
6017;SDS011;3037;51.068;13.780;2023-05-31T14:49:42;2.47;;;2.33;;
6017;SDS011;3037;51.068;13.780;2023-05-31T14:52:07;2.77;;;2.33;;
6017;SDS011;3037;51.068;13.780;2023-05-31T14:54:33;6.73;;;3.00;;
6017;SDS011;3037;51.068;13.780;2023-05-31T14:56:59;5.23;;;2.90;;
6017;SDS011;3037;51.068;13.780;2023-05-31T14:59:26;10.07;;;3.03;;
6017;SDS011;3037;51.068;13.780;2023-05-31T15:01:53;7.53;;;2.90;;
6017;SDS011;3037;51.068;13.780;2023-05-31T15:04:19;5.03;;;2.40;;
6017;SDS011;3037;51.068;13.780;2023-05-31T15:06:45;8.23;;;2.30;;
6017;SDS011;3037;51.068;13.780;2023-05-31T15:09:10;5.37;;;2.67;;